createdAt,value
2022-10-15T00:04:15.237Z,0.05
2022-10-15T00:09:13.822Z,0.05
2022-10-15T00:14:13.088Z,0.05
2022-10-15T00:19:13.115Z,0.05
2022-10-15T00:24:12.896Z,0.05
2022-10-15T00:29:12.161Z,0.05
2022-10-15T00:34:11.793Z,0.05
2022-10-15T00:39:11.107Z,0.05
2022-10-15T00:44:10.679Z,0.05
2022-10-15T00:49:11.835Z,0.05
2022-10-15T00:54:08.530Z,0.05
2022-10-15T00:58:54.326Z,0.05
2022-10-15T01:03:54.072Z,0.05
2022-10-15T01:08:53.988Z,0.05
2022-10-15T01:13:52.475Z,0.05
2022-10-15T01:18:51.515Z,0.05
2022-10-15T01:23:52.150Z,0.05
2022-10-15T01:28:50.831Z,0.05
2022-10-15T01:38:48.748Z,0.05
2022-10-15T01:43:48.034Z,0.05
2022-10-15T01:48:47.304Z,0.05
2022-10-15T01:53:45.389Z,0.05
2022-10-15T01:58:45.703Z,0.05
2022-10-15T02:00:07.216Z,0.05
2022-10-15T02:05:08.170Z,0.05
2022-10-15T02:10:38.810Z,0.05
2022-10-15T02:15:05.119Z,0.05
2022-10-15T02:25:03.550Z,0.05
2022-10-15T02:30:02.263Z,0.05
2022-10-15T02:35:01.581Z,0.05
2022-10-15T02:40:01.632Z,0.05
2022-10-15T02:45:00.812Z,0.05
2022-10-15T02:50:00.085Z,0.05
2022-10-15T02:54:59.523Z,0.05
2022-10-15T02:59:29.873Z,0.05
2022-10-15T03:04:31.007Z,0.05
2022-10-15T03:09:28.090Z,0.05
2022-10-15T03:14:27.844Z,0.05
2022-10-15T03:19:28.853Z,0.05
2022-10-15T03:24:15.211Z,0.05
2022-10-15T03:29:15.231Z,0.05
2022-10-15T03:34:13.848Z,0.05
2022-10-15T03:39:13.752Z,0.05
2022-10-15T03:44:12.000Z,0.05
2022-10-15T03:49:11.935Z,0.05
2022-10-15T03:54:11.804Z,0.05
2022-10-15T03:58:58.942Z,0.05
2022-10-15T04:03:58.535Z,0.05
2022-10-15T04:08:58.057Z,0.05
2022-10-15T04:13:58.755Z,0.05
2022-10-15T04:18:57.625Z,0.05
2022-10-15T04:23:57.639Z,0.05
2022-10-15T04:28:55.365Z,0.05
2022-10-15T04:33:55.041Z,0.05
2022-10-15T04:38:54.487Z,0.05
2022-10-15T04:43:54.267Z,0.05
2022-10-15T04:48:53.459Z,0.05
2022-10-15T04:53:53.676Z,0.05
2022-10-15T04:58:53.161Z,0.05
2022-10-15T05:03:53.833Z,0.05
2022-10-15T05:08:51.123Z,0.05
2022-10-15T05:13:50.679Z,0.05
2022-10-15T05:18:50.336Z,0.05
2022-10-15T05:23:50.073Z,0.05
2022-10-15T05:28:48.847Z,0.06
2022-10-15T05:33:47.919Z,0.06
2022-10-15T05:38:47.693Z,0.07
2022-10-15T05:43:46.987Z,0.09
2022-10-15T05:48:46.209Z,0.15
2022-10-15T05:53:46.124Z,0.19
2022-10-15T05:58:45.480Z,0.23
2022-10-15T06:03:44.974Z,0.28
2022-10-15T06:08:45.884Z,0.3
2022-10-15T06:13:43.394Z,0.44
2022-10-15T06:18:43.401Z,0.62
2022-10-15T06:23:43.358Z,0.76
2022-10-15T06:28:42.914Z,0.83
2022-10-15T06:33:42.200Z,0.85
2022-10-15T06:38:42.849Z,0.76
2022-10-15T06:43:42.134Z,0.55
2022-10-15T06:48:42.744Z,0.83
2022-10-15T06:53:39.555Z,0.82
2022-10-15T06:58:39.229Z,1
2022-10-15T07:00:00.628Z,1.13
2022-10-15T07:05:00.495Z,0.89
2022-10-15T07:09:58.484Z,0.77
2022-10-15T07:14:58.163Z,0.78
2022-10-15T07:19:58.104Z,0.83
2022-10-15T07:24:57.212Z,0.9
2022-10-15T07:29:56.637Z,1.12
2022-10-15T07:34:56.319Z,1.03
2022-10-15T07:39:56.358Z,1.4
2022-10-15T07:44:55.481Z,1.28
2022-10-15T07:49:56.758Z,1.58
2022-10-15T07:54:53.712Z,1.88
2022-10-15T07:59:28.162Z,2.07
2022-10-15T08:04:29.417Z,1.87
2022-10-15T08:09:15.580Z,2.68
2022-10-15T08:14:15.915Z,2.39
2022-10-15T08:19:14.679Z,3.66
2022-10-15T08:24:14.601Z,4.17
2022-10-15T08:29:13.054Z,3.95
2022-10-15T08:34:13.054Z,2.48
2022-10-15T08:39:12.809Z,3.14
2022-10-15T08:44:11.944Z,3.31
2022-10-15T08:49:10.942Z,2.18
2022-10-15T08:54:10.481Z,2.04
2022-10-15T08:58:56.539Z,2.16
2022-10-15T09:03:55.901Z,2.51
2022-10-15T09:08:56.763Z,2.8
2022-10-15T09:13:53.857Z,3.04
2022-10-15T09:18:54.032Z,4.16
2022-10-15T09:23:53.209Z,6.98
2022-10-15T09:28:53.222Z,8.19
2022-10-15T09:33:51.775Z,7.96
2022-10-15T09:38:51.550Z,7.73
2022-10-15T09:43:50.481Z,7.06
2022-10-15T09:48:51.445Z,6.5
2022-10-15T09:53:48.535Z,5.2
2022-10-15T09:58:48.744Z,6.03
2022-10-15T10:00:09.915Z,5.66
2022-10-15T10:05:10.773Z,5.84
2022-10-15T10:10:07.733Z,4.55
2022-10-15T10:15:07.306Z,4.88
2022-10-15T10:20:07.122Z,4.29
2022-10-15T10:25:06.672Z,5.01
2022-10-15T10:30:05.637Z,8.58
2022-10-15T10:35:05.474Z,7.29
2022-10-15T10:40:05.062Z,8.85
2022-10-15T10:45:05.126Z,7.35
2022-10-15T10:50:05.352Z,10.71
2022-10-15T10:55:02.650Z,7.59
2022-10-15T10:59:33.369Z,8.84
2022-10-15T11:04:33.363Z,8.05
2022-10-15T11:09:33.888Z,6.58
2022-10-15T11:14:33.115Z,4.42
2022-10-15T11:20:53.726Z,5.34
2022-10-15T11:25:07.484Z,5.75
2022-10-15T11:29:30.670Z,4.63
2022-10-15T11:34:30.535Z,3.82
2022-10-15T11:39:30.204Z,4.56
2022-10-15T11:44:30.624Z,4.33
2022-10-15T11:49:30.402Z,5.39
2022-10-15T11:54:31.174Z,6.43
2022-10-15T11:59:02.265Z,6.79
2022-10-15T12:04:02.700Z,6.17
2022-10-15T12:09:01.295Z,5.14
2022-10-15T12:14:02.397Z,5.25
2022-10-15T12:18:59.217Z,5.72
2022-10-15T12:23:59.081Z,6.03
2022-10-15T12:29:04.740Z,5.17
2022-10-15T12:33:58.006Z,4.2
2022-10-15T12:38:56.070Z,3.58
2022-10-15T12:43:55.484Z,5.34
2022-10-15T12:48:55.657Z,8.11
2022-10-15T12:53:56.775Z,6.25
2022-10-15T12:58:53.877Z,3.9
2022-10-15T13:03:53.913Z,3.84
2022-10-15T13:08:52.958Z,3.46
2022-10-15T13:13:52.608Z,4.03
2022-10-15T13:18:50.901Z,3.49
2022-10-15T13:24:44.339Z,2.83
2022-10-15T13:28:50.607Z,2.35
2022-10-15T13:33:50.187Z,2.37
2022-10-15T13:38:49.979Z,2.57
2022-10-15T13:43:49.521Z,2.93
2022-10-15T13:48:54.669Z,2.07
2022-10-15T13:53:47.138Z,2.13
2022-10-15T13:58:46.741Z,2.11
2022-10-15T14:03:45.825Z,1.85
2022-10-15T14:08:45.417Z,2.34
2022-10-15T14:13:43.867Z,2.19
2022-10-15T14:18:50.963Z,2.03
2022-10-15T14:23:43.744Z,2.65
2022-10-15T14:28:43.210Z,2.04
2022-10-15T14:33:40.415Z,1.87
2022-10-15T14:38:40.806Z,1.86
2022-10-15T14:43:39.444Z,1.52
2022-10-15T14:48:39.416Z,1.01
2022-10-15T14:53:38.051Z,0.74
2022-10-15T14:58:38.115Z,0.5
2022-10-15T14:59:59.838Z,0.48
2022-10-15T15:04:58.809Z,0.49
2022-10-15T15:09:57.869Z,0.6
2022-10-15T15:14:57.488Z,0.85
2022-10-15T15:19:57.274Z,0.83
2022-10-15T15:24:56.532Z,0.82
2022-10-15T15:29:57.267Z,0.65
2022-10-15T15:34:54.312Z,0.65
2022-10-15T15:39:54.353Z,0.75
2022-10-15T15:44:53.971Z,0.68
2022-10-15T15:49:53.285Z,0.45
2022-10-15T15:54:51.570Z,0.43
2022-10-15T15:59:11.189Z,0.35
2022-10-15T16:04:11.369Z,0.26
2022-10-15T16:09:12.277Z,0.29
2022-10-15T16:14:11.799Z,0.22
2022-10-15T16:19:09.860Z,0.23
2022-10-15T16:24:08.631Z,0.23
2022-10-15T16:29:08.584Z,0.13
2022-10-15T16:34:06.673Z,0.12
2022-10-15T16:39:06.875Z,0.08
2022-10-15T16:44:06.327Z,0.06
2022-10-15T16:49:06.213Z,0.06
2022-10-15T16:54:05.106Z,0.05
2022-10-15T16:59:00.085Z,0.05
2022-10-15T17:03:59.579Z,0.05
2022-10-15T17:08:58.498Z,0.05
2022-10-15T17:13:59.724Z,0.05
2022-10-15T17:18:56.544Z,0.05
2022-10-15T17:23:57.475Z,0.05
2022-10-15T17:28:55.805Z,0.05
2022-10-15T17:33:54.921Z,0.05
2022-10-15T17:38:53.918Z,0.05
2022-10-15T17:43:53.267Z,0.05
2022-10-15T17:48:53.545Z,0.05
2022-10-15T17:53:53.816Z,0.05
2022-10-15T17:58:51.473Z,0.05
2022-10-15T18:00:15.994Z,0.05
2022-10-15T18:05:12.173Z,0.05
2022-10-15T18:10:11.429Z,0.05
2022-10-15T18:15:09.764Z,0.05
2022-10-15T18:20:09.798Z,0.05
2022-10-15T18:25:08.147Z,0.05
2022-10-15T18:30:08.791Z,0.05
2022-10-15T18:35:05.807Z,0.05
2022-10-15T18:40:05.945Z,0.05
2022-10-15T18:45:05.029Z,0.05
2022-10-15T18:50:04.876Z,0.05
2022-10-15T18:55:03.203Z,0.05
2022-10-15T18:59:33.343Z,0.05
2022-10-15T19:04:32.931Z,0.05
2022-10-15T19:09:34.389Z,0.05
2022-10-15T19:14:31.357Z,0.05
2022-10-15T19:19:32.084Z,0.05
2022-10-15T19:24:35.707Z,0.05
2022-10-15T19:29:37.141Z,0.05
2022-10-15T19:34:30.938Z,0.05
2022-10-15T19:39:32.764Z,0.05
2022-10-15T19:44:28.903Z,0.05
2022-10-15T19:49:29.010Z,0.05
2022-10-15T19:54:29.642Z,0.05
2022-10-15T19:59:04.642Z,0.05
2022-10-15T20:04:08.938Z,0.05
2022-10-15T20:09:02.963Z,0.05
2022-10-15T20:14:03.161Z,0.05
2022-10-15T20:19:00.583Z,0.05
2022-10-15T20:24:00.787Z,0.05
2022-10-15T20:29:00.653Z,0.05
2022-10-15T20:33:59.873Z,0.05
2022-10-15T20:38:58.933Z,0.05
2022-10-15T20:43:59.002Z,0.05
2022-10-15T20:48:58.779Z,0.05
2022-10-15T20:53:58.245Z,0.05
2022-10-15T20:58:55.542Z,0.05
2022-10-15T21:03:55.090Z,0.05
2022-10-15T21:08:55.173Z,0.05
2022-10-15T21:13:54.716Z,0.05
2022-10-15T21:18:53.785Z,0.05
2022-10-15T21:23:53.370Z,0.05
2022-10-15T21:28:53.249Z,0.05
2022-10-15T21:33:52.802Z,0.05
2022-10-15T21:38:53.216Z,0.05
2022-10-15T21:43:53.523Z,0.05
2022-10-15T21:48:49.682Z,0.05
2022-10-15T21:53:49.087Z,0.05
2022-10-15T21:58:49.058Z,0.05
2022-10-15T22:03:47.756Z,0.05
2022-10-15T22:08:47.393Z,0.05
2022-10-15T22:13:47.491Z,0.05
2022-10-15T22:18:47.200Z,0.05
2022-10-15T22:23:51.687Z,0.05
2022-10-15T22:28:45.913Z,0.05
2022-10-15T22:33:46.104Z,0.05
2022-10-15T22:38:46.396Z,0.05
2022-10-15T22:43:45.289Z,0.05
2022-10-15T22:48:43.800Z,0.05
2022-10-15T22:53:43.985Z,0.05
2022-10-15T22:58:42.634Z,0.05
2022-10-15T23:00:04.305Z,0.05
2022-10-15T23:05:04.048Z,0.05
2022-10-15T23:10:03.447Z,0.05
2022-10-15T23:15:03.261Z,0.05
2022-10-15T23:20:03.794Z,0.05
2022-10-15T23:25:00.602Z,0.05
2022-10-15T23:30:26.311Z,0.05
2022-10-15T23:34:59.502Z,0.05
2022-10-15T23:39:59.620Z,0.05
2022-10-15T23:44:57.879Z,0.05
2022-10-15T23:49:57.339Z,0.05
2022-10-15T23:54:57.078Z,0.05
2022-10-15T23:59:28.474Z,0.05
